MMPB/PBC METAR and TAF weather

Enter ICAO airport designator
Station Type Date Time Source
MMPB METAR 2021/07/28 01:41 UTC NOAA

MMPB 280141Z 27007KT 5SM RA OVC015CB 15/13 A3033 RMK 6//// 8/9// OCNL TS


Station Type Date Time Source
MMPB Decoded METAR 2021/07/28 01:41 UTC NOAA

Puebla, Pue., Mexico (MMPB) 19-03N 098-10W
Jul 27, 2021 - 09:41 PM EDT / 2021.07.28 0141 UTC
Wind: from the W (270 degrees) at 8 MPH (7 KT):0
Visibility: 5 mile(s):0
Sky conditions: overcast
Weather: rain; Cumulonimbus clouds observed
Temperature: 59 F (15 C)
Dew Point: 55 F (13 C)
Relative Humidity: 87%
Pressure (altimeter): 30.33 in. Hg (1027 hPa)
ob: MMPB 280141Z 27007KT 5SM RA OVC015CB 15/13 A3033 RMK 6//// 8/9// OCNL TS
cycle: 1

Station Type Date Time Source
MMPB TAF 2021/07/28 06:07 UTC NOAA

TAF MMPB 280402Z 2806/2906 32005KT 6SM HZ SCT020 BKN080
TEMPO 2810/2814 BKN015
FM281800 03010KT P6SM SCT025 BKN080 BKN250
FM290500 32005KT P6SM SCT020 BKN080

Example: see airport list